createdAt,value
2022-09-09T00:01:52.750Z,17.64
2022-09-09T00:04:29.556Z,17.73
2022-09-09T00:07:17.298Z,17.76
2022-09-09T00:09:50.324Z,17.76
2022-09-09T00:12:26.351Z,17.56
2022-09-09T00:14:57.487Z,17.59
2022-09-09T00:17:42.183Z,17.15
2022-09-09T00:20:17.803Z,17.06
2022-09-09T00:22:52.092Z,17.08
2022-09-09T00:25:27.503Z,16.76
2022-09-09T00:27:55.327Z,16.51
2022-09-09T00:30:25.456Z,16.57
2022-09-09T00:33:00.482Z,16.53
2022-09-09T00:35:32.325Z,16.39
2022-09-09T00:38:17.233Z,16.67
2022-09-09T00:41:01.679Z,16.84
2022-09-09T00:43:39.021Z,16.79
2022-09-09T00:46:35.268Z,16.80
2022-09-09T00:49:16.573Z,16.83
2022-09-09T00:52:00.304Z,16.80
2022-09-09T00:54:40.945Z,16.69
2022-09-09T00:57:32.224Z,16.46
2022-09-09T01:00:21.049Z,16.91
2022-09-09T01:02:53.431Z,17.01
2022-09-09T01:05:27.346Z,17.01
2022-09-09T01:07:58.330Z,16.77
2022-09-09T01:10:47.276Z,16.46
2022-09-09T01:13:24.738Z,16.40
2022-09-09T01:16:01.619Z,16.30
2022-09-09T01:18:37.754Z,16.17
2022-09-09T01:21:35.891Z,15.99
2022-09-09T01:25:07.464Z,15.85
2022-09-09T01:27:53.610Z,16.26
2022-09-09T01:30:21.817Z,16.45
2022-09-09T01:32:57.059Z,16.52
2022-09-09T01:35:39.713Z,16.56
2022-09-09T01:38:09.257Z,16.69
2022-09-09T01:40:37.370Z,16.67
2022-09-09T01:43:05.087Z,16.87
2022-09-09T01:45:34.402Z,17.06
2022-09-09T01:48:01.956Z,16.75
2022-09-09T01:50:47.335Z,16.52
2022-09-09T01:53:17.977Z,16.42
2022-09-09T01:56:09.658Z,16.88
2022-09-09T01:59:06.541Z,17.16
2022-09-09T02:01:59.293Z,17.00
2022-09-09T02:04:32.279Z,17.02
2022-09-09T02:06:59.572Z,16.71
2022-09-09T02:09:31.002Z,16.54
2022-09-09T02:12:09.840Z,16.62
2022-09-09T02:14:53.711Z,16.70
2022-09-09T02:17:30.034Z,16.91
2022-09-09T02:20:14.061Z,17.04
2022-09-09T02:22:51.333Z,17.01
2022-09-09T02:25:23.148Z,16.60
2022-09-09T02:27:52.627Z,16.52
2022-09-09T02:30:21.450Z,16.50
2022-09-09T02:32:58.758Z,16.47
2022-09-09T02:35:39.017Z,16.29
2022-09-09T02:38:11.463Z,16.37
2022-09-09T02:40:39.990Z,16.42
2022-09-09T02:43:07.434Z,16.46
2022-09-09T02:46:05.357Z,16.39
2022-09-09T02:48:57.028Z,16.39
2022-09-09T02:51:42.121Z,16.35
2022-09-09T02:54:34.446Z,16.30
2022-09-09T02:57:12.989Z,16.29
2022-09-09T02:59:42.613Z,16.27
2022-09-09T03:02:12.388Z,16.29
2022-09-09T03:04:41.099Z,16.10
2022-09-09T03:07:08.223Z,15.97
2022-09-09T03:09:35.262Z,16.01
2022-09-09T03:12:02.201Z,16.00
2022-09-09T03:14:32.079Z,16.26
2022-09-09T03:17:01.752Z,16.14
2022-09-09T03:19:31.134Z,16.09
2022-09-09T03:21:59.187Z,16.22
2022-09-09T03:24:26.208Z,16.44
2022-09-09T03:26:53.194Z,16.55
2022-09-09T03:29:19.901Z,16.39
2022-09-09T03:31:47.313Z,16.46
2022-09-09T03:34:14.799Z,16.62
2022-09-09T03:36:42.148Z,16.58
2022-09-09T03:39:08.744Z,16.42
2022-09-09T03:41:35.893Z,16.61
2022-09-09T03:44:03.338Z,16.38
2022-09-09T03:46:34.904Z,16.44
2022-09-09T03:49:02.544Z,16.40
2022-09-09T03:51:31.600Z,16.43
2022-09-09T03:53:59.207Z,16.54
2022-09-09T03:56:28.003Z,16.27
2022-09-09T03:58:55.875Z,16.13
2022-09-09T04:01:22.591Z,15.89
2022-09-09T04:03:49.326Z,16.15
2022-09-09T04:06:16.239Z,16.16
2022-09-09T04:08:46.113Z,16.22
2022-09-09T04:11:14.156Z,16.21
2022-09-09T04:13:41.342Z,16.23
2022-09-09T04:16:12.106Z,16.03
2022-09-09T04:18:39.464Z,16.38
2022-09-09T04:21:08.029Z,16.20
2022-09-09T04:23:35.852Z,16.34
2022-09-09T04:26:03.711Z,16.40
2022-09-09T04:28:33.850Z,16.07
2022-09-09T04:31:19.625Z,15.89
2022-09-09T04:33:47.590Z,15.76
2022-09-09T04:36:14.659Z,16.11
2022-09-09T04:38:42.301Z,16.05
2022-09-09T04:41:08.909Z,16.11
2022-09-09T04:43:38.383Z,16.30
2022-09-09T04:46:07.790Z,16.59
2022-09-09T04:48:35.152Z,16.63
2022-09-09T04:51:10.289Z,16.42
2022-09-09T04:53:37.098Z,16.30
2022-09-09T04:56:08.300Z,16.66
2022-09-09T04:58:40.377Z,16.55
2022-09-09T05:01:09.972Z,16.41
2022-09-09T05:03:38.807Z,16.18
2022-09-09T05:06:10.690Z,16.43
2022-09-09T05:08:39.252Z,16.32
2022-09-09T05:11:24.370Z,16.56
2022-09-09T05:13:53.842Z,16.30
2022-09-09T05:16:21.767Z,16.35
2022-09-09T05:18:48.485Z,16.37
2022-09-09T05:21:16.913Z,16.58
2022-09-09T05:23:43.580Z,16.69
2022-09-09T05:26:17.932Z,16.69
2022-09-09T05:28:47.312Z,17.12
2022-09-09T05:31:15.596Z,17.11
2022-09-09T05:33:46.881Z,16.99
2022-09-09T05:36:16.548Z,16.72
2022-09-09T05:38:44.641Z,16.54
2022-09-09T05:41:12.553Z,16.41
2022-09-09T05:43:39.732Z,16.22
2022-09-09T05:46:15.010Z,16.08
2022-09-09T05:48:47.414Z,16.37
2022-09-09T05:51:26.043Z,16.57
2022-09-09T05:53:56.321Z,16.49
2022-09-09T05:56:26.384Z,16.42
2022-09-09T05:58:56.911Z,16.54
2022-09-09T06:01:32.934Z,16.32
2022-09-09T06:04:01.193Z,16.41
2022-09-09T06:06:32.504Z,16.47
2022-09-09T06:09:00.717Z,16.25
2022-09-09T06:11:37.026Z,16.21
2022-09-09T06:14:04.774Z,16.54
2022-09-09T06:16:35.766Z,16.45
2022-09-09T06:19:06.345Z,16.43
2022-09-09T06:21:39.491Z,16.51
2022-09-09T06:24:08.615Z,16.52
2022-09-09T06:26:38.025Z,16.48
2022-09-09T06:29:05.456Z,16.45
2022-09-09T06:31:35.483Z,16.63
2022-09-09T06:34:09.777Z,16.67
2022-09-09T06:36:40.730Z,16.81
2022-09-09T06:39:14.170Z,16.70
2022-09-09T06:41:42.001Z,16.76
2022-09-09T06:44:14.555Z,16.78
2022-09-09T06:46:42.380Z,16.88
2022-09-09T06:49:11.028Z,16.94
2022-09-09T06:51:43.840Z,16.87
2022-09-09T06:54:13.205Z,16.97
2022-09-09T06:56:44.070Z,17.11
2022-09-09T06:59:17.091Z,17.15
2022-09-09T07:01:45.363Z,17.14
2022-09-09T07:04:14.669Z,17.05
2022-09-09T07:06:46.843Z,17.16
2022-09-09T07:09:18.002Z,17.19
2022-09-09T07:11:50.438Z,17.20
2022-09-09T07:14:18.277Z,17.11
2022-09-09T07:16:48.206Z,16.89
2022-09-09T07:19:16.838Z,17.08
2022-09-09T07:21:45.083Z,17.08
2022-09-09T07:24:14.751Z,17.05
2022-09-09T07:26:43.026Z,16.98
2022-09-09T07:29:09.913Z,17.11
2022-09-09T07:31:38.920Z,17.14
2022-09-09T07:34:09.442Z,17.18
2022-09-09T07:36:39.514Z,17.22
2022-09-09T07:39:14.075Z,17.13
2022-09-09T07:41:46.973Z,17.23
2022-09-09T07:44:18.015Z,17.28
2022-09-09T07:46:47.057Z,17.28
2022-09-09T07:49:22.799Z,17.32
2022-09-09T07:51:53.398Z,17.32
2022-09-09T07:54:21.616Z,17.38
2022-09-09T07:56:51.913Z,17.43
2022-09-09T07:59:20.371Z,17.33
2022-09-09T08:01:56.135Z,17.22
2022-09-09T08:04:27.692Z,17.40
2022-09-09T08:06:59.532Z,17.59
2022-09-09T08:09:29.874Z,17.60
2022-09-09T08:12:09.918Z,17.34
2022-09-09T08:14:36.592Z,17.48
2022-09-09T08:17:03.735Z,17.21
2022-09-09T08:19:35.005Z,17.35
2022-09-09T08:22:02.862Z,17.31
2022-09-09T08:24:30.768Z,17.43
2022-09-09T08:26:57.822Z,17.36
2022-09-09T08:29:25.302Z,17.40
2022-09-09T08:31:55.905Z,17.38
2022-09-09T08:34:22.927Z,17.27
2022-09-09T08:36:51.601Z,17.62
2022-09-09T08:39:22.907Z,17.73
2022-09-09T08:42:05.957Z,17.92
2022-09-09T08:44:50.951Z,17.89
2022-09-09T08:47:48.156Z,17.80
2022-09-09T08:50:36.298Z,17.90
2022-09-09T08:53:13.904Z,17.76
2022-09-09T08:55:51.144Z,17.95
2022-09-09T08:58:26.395Z,18.14
2022-09-09T09:01:27.787Z,18.38
2022-09-09T09:04:15.917Z,18.47
2022-09-09T09:07:06.257Z,18.51
2022-09-09T09:10:18.947Z,18.58
2022-09-09T09:12:53.989Z,18.70
2022-09-09T09:15:28.283Z,18.46
2022-09-09T09:17:58.605Z,18.51
2022-09-09T09:20:44.107Z,18.46
2022-09-09T09:23:23.396Z,18.59
2022-09-09T09:25:53.338Z,18.69
2022-09-09T09:28:26.148Z,18.65
2022-09-09T09:31:05.272Z,19.04
2022-09-09T09:33:54.094Z,19.05
2022-09-09T09:36:34.353Z,19.18
2022-09-09T09:41:52.144Z,18.72
2022-09-09T09:52:55.510Z,18.97
2022-09-09T09:55:25.043Z,19.12
2022-09-09T09:57:53.002Z,19.02
2022-09-09T10:00:23.658Z,19.22
2022-09-09T10:03:22.559Z,19.00
2022-09-09T10:05:50.589Z,19.07
2022-09-09T10:08:18.345Z,19.13
2022-09-09T10:11:05.819Z,19.37
2022-09-09T10:13:55.506Z,19.34
2022-09-09T10:16:31.227Z,19.07
2022-09-09T10:19:04.995Z,19.09
2022-09-09T10:21:48.741Z,19.12
2022-09-09T10:24:36.894Z,19.35
2022-09-09T10:27:30.064Z,19.45
2022-09-09T10:30:09.685Z,19.41
2022-09-09T10:32:47.850Z,19.75
2022-09-09T10:35:40.092Z,19.67
2022-09-09T10:38:14.711Z,19.85
2022-09-09T10:41:08.882Z,19.77
2022-09-09T10:43:43.639Z,19.87
2022-09-09T10:46:16.625Z,19.84
2022-09-09T10:49:05.144Z,19.79
2022-09-09T10:51:54.914Z,20.36
2022-09-09T10:54:55.884Z,20.25
2022-09-09T10:57:29.864Z,20.19
2022-09-09T11:00:00.771Z,20.37
2022-09-09T11:02:32.412Z,20.78
2022-09-09T11:05:09.731Z,20.48
2022-09-09T11:07:46.660Z,20.52
2022-09-09T11:10:28.121Z,20.50
2022-09-09T11:13:00.498Z,20.50
2022-09-09T11:15:37.437Z,20.70
2022-09-09T11:18:05.659Z,20.97
2022-09-09T11:20:33.126Z,20.64
2022-09-09T11:23:11.826Z,20.10
2022-09-09T11:25:44.013Z,19.75
2022-09-09T11:28:25.946Z,19.78
2022-09-09T11:31:12.449Z,19.49
2022-09-09T11:34:03.679Z,19.54
2022-09-09T11:36:44.214Z,19.70
2022-09-09T11:39:51.034Z,19.59
2022-09-09T11:42:22.051Z,19.99
2022-09-09T11:44:48.812Z,20.26
2022-09-09T11:47:30.549Z,20.39
2022-09-09T11:50:08.859Z,20.37
2022-09-09T11:52:43.241Z,20.38
2022-09-09T11:55:25.407Z,20.32
2022-09-09T11:58:00.308Z,20.48
2022-09-09T12:00:35.135Z,20.76
2022-09-09T12:03:01.738Z,20.71
2022-09-09T12:05:42.946Z,20.75
2022-09-09T12:08:18.454Z,20.58
2022-09-09T12:10:58.144Z,20.30
2022-09-09T12:13:27.668Z,20.26
2022-09-09T12:15:57.155Z,20.16
2022-09-09T12:18:27.641Z,20.29
2022-09-09T12:21:09.974Z,19.93
2022-09-09T12:23:45.640Z,19.62
2022-09-09T12:26:34.102Z,19.84
2022-09-09T12:29:07.600Z,19.85
2022-09-09T12:31:47.017Z,19.65
2022-09-09T12:34:20.734Z,19.81
2022-09-09T12:36:55.806Z,19.72
2022-09-09T12:39:39.674Z,19.82
2022-09-09T12:42:06.284Z,19.83
2022-09-09T12:44:33.328Z,19.73
2022-09-09T12:47:04.533Z,19.77
2022-09-09T12:49:35.433Z,19.84
2022-09-09T12:52:27.032Z,19.96
2022-09-09T12:54:54.673Z,20.01
2022-09-09T12:57:26.421Z,20.03
2022-09-09T12:59:54.208Z,20.02
2022-09-09T13:02:25.697Z,20.01
2022-09-09T13:04:53.277Z,19.99
2022-09-09T13:07:21.237Z,19.98
2022-09-09T13:09:48.822Z,20.14
2022-09-09T13:12:26.172Z,20.30
2022-09-09T13:14:57.172Z,20.44
2022-09-09T13:17:30.986Z,20.28
2022-09-09T13:19:58.146Z,20.34
2022-09-09T13:22:36.457Z,20.68
2022-09-09T13:25:12.439Z,20.44
2022-09-09T13:27:41.951Z,20.67
2022-09-09T13:30:33.191Z,20.83
2022-09-09T13:33:04.741Z,20.93
2022-09-09T13:35:31.734Z,20.64
2022-09-09T13:38:00.166Z,20.71
2022-09-09T13:40:26.871Z,20.73
2022-09-09T13:42:57.190Z,20.97
2022-09-09T13:45:27.715Z,21.19
2022-09-09T13:47:56.446Z,21.00
2022-09-09T13:50:28.590Z,21.11
2022-09-09T13:52:59.246Z,21.13
2022-09-09T13:55:29.623Z,21.32
2022-09-09T13:58:02.143Z,21.16
2022-09-09T14:00:33.668Z,21.20
2022-09-09T14:03:04.146Z,21.66
2022-09-09T14:05:33.632Z,21.44
2022-09-09T14:08:01.596Z,21.50
2022-09-09T14:10:28.187Z,21.71
2022-09-09T14:12:54.778Z,21.47
2022-09-09T14:15:22.750Z,21.37
2022-09-09T14:17:49.578Z,21.28
2022-09-09T14:20:18.412Z,21.34
2022-09-09T14:22:45.123Z,21.56
2022-09-09T14:25:14.360Z,21.79
2022-09-09T14:27:41.044Z,21.81
2022-09-09T14:30:08.233Z,21.71
2022-09-09T14:32:34.777Z,21.53
2022-09-09T14:35:01.490Z,21.62
2022-09-09T14:37:28.344Z,21.74
2022-09-09T14:39:55.042Z,21.79
2022-09-09T14:42:23.023Z,21.66
2022-09-09T14:44:49.546Z,21.28
2022-09-09T14:47:16.054Z,21.37
2022-09-09T14:49:45.124Z,21.54
2022-09-09T14:52:14.039Z,21.34
2022-09-09T14:54:41.119Z,21.47
2022-09-09T14:57:07.646Z,20.96
2022-09-09T14:59:35.353Z,21.13
2022-09-09T15:02:05.036Z,21.12
2022-09-09T15:04:31.579Z,20.93
2022-09-09T15:06:58.118Z,21.08
2022-09-09T15:09:24.751Z,21.39
2022-09-09T15:11:51.317Z,21.39
2022-09-09T15:14:22.277Z,21.04
2022-09-09T15:16:51.943Z,21.08
2022-09-09T15:19:18.563Z,20.61
2022-09-09T15:21:45.311Z,20.58
2022-09-09T15:24:11.924Z,20.62
2022-09-09T15:26:41.320Z,20.68
2022-09-09T15:29:09.014Z,20.28
2022-09-09T15:31:35.809Z,20.57
2022-09-09T15:34:04.980Z,20.34
2022-09-09T15:36:34.009Z,20.38
2022-09-09T15:39:02.070Z,20.26
2022-09-09T15:41:29.373Z,20.26
2022-09-09T15:43:57.650Z,20.13
2022-09-09T15:46:26.942Z,19.97
2022-09-09T15:49:03.958Z,20.26
2022-09-09T15:51:42.290Z,20.03
2022-09-09T15:54:14.690Z,20.14
2022-09-09T15:56:41.973Z,20.10
2022-09-09T15:59:08.750Z,20.43
2022-09-09T16:01:36.818Z,20.39
2022-09-09T16:04:03.650Z,20.83
2022-09-09T16:06:30.560Z,21.06
2022-09-09T16:08:59.115Z,21.10
2022-09-09T16:11:32.078Z,20.93
2022-09-09T16:13:59.435Z,20.70
2022-09-09T16:16:28.721Z,20.73
2022-09-09T16:18:59.978Z,20.79
2022-09-09T16:21:32.231Z,20.89
2022-09-09T16:24:01.705Z,20.74
2022-09-09T16:26:29.236Z,20.57
2022-09-09T16:28:55.832Z,20.60
2022-09-09T16:31:26.233Z,20.53
2022-09-09T16:33:53.004Z,20.45
2022-09-09T16:36:22.487Z,20.70
2022-09-09T16:38:55.543Z,20.72
2022-09-09T16:41:22.892Z,20.49
2022-09-09T16:43:53.719Z,20.70
2022-09-09T16:46:21.272Z,20.42
2022-09-09T16:48:48.659Z,20.42
2022-09-09T16:51:24.923Z,20.47
2022-09-09T16:53:52.926Z,20.44
2022-09-09T16:56:23.359Z,20.15
2022-09-09T16:58:51.488Z,20.02
2022-09-09T17:01:18.367Z,20.24
2022-09-09T17:03:44.921Z,20.32
2022-09-09T17:06:13.011Z,20.63
2022-09-09T17:08:42.276Z,20.74
2022-09-09T17:11:19.072Z,20.79
2022-09-09T17:13:49.053Z,20.64
2022-09-09T17:16:18.757Z,20.37
2022-09-09T17:18:47.023Z,20.42
2022-09-09T17:21:16.825Z,20.50
2022-09-09T17:23:43.931Z,20.49
2022-09-09T17:26:13.577Z,20.45
2022-09-09T17:28:41.068Z,20.23
2022-09-09T17:31:09.174Z,20.05
2022-09-09T17:33:38.140Z,19.81
2022-09-09T17:36:15.166Z,19.56
2022-09-09T17:38:43.504Z,19.27
2022-09-09T17:41:34.458Z,19.11
2022-09-09T17:44:01.368Z,19.23
2022-09-09T17:46:33.462Z,19.10
2022-09-09T17:49:01.603Z,19.16
2022-09-09T17:51:33.188Z,19.23
2022-09-09T17:54:07.070Z,19.18
2022-09-09T17:56:34.056Z,19.18
2022-09-09T17:59:02.337Z,19.03
2022-09-09T18:01:34.686Z,19.06
2022-09-09T18:04:03.632Z,18.77
2022-09-09T18:06:37.033Z,18.72
2022-09-09T18:09:09.055Z,18.61
2022-09-09T18:11:42.375Z,18.59
2022-09-09T18:14:12.581Z,18.37
2022-09-09T18:16:40.764Z,18.03
2022-09-09T18:19:13.487Z,18.19
2022-09-09T18:21:42.196Z,18.17
2022-09-09T18:24:10.436Z,18.22
2022-09-09T18:26:39.243Z,17.92
2022-09-09T18:29:11.040Z,18.11
2022-09-09T18:31:37.995Z,18.05
2022-09-09T18:34:07.127Z,18.37
2022-09-09T18:36:36.865Z,18.31
2022-09-09T18:39:06.878Z,18.10
2022-09-09T18:41:36.081Z,18.22
2022-09-09T18:44:06.143Z,18.32
2022-09-09T18:46:34.789Z,18.30
2022-09-09T18:49:02.108Z,18.23
2022-09-09T18:51:29.850Z,18.09
2022-09-09T18:54:01.750Z,18.01
2022-09-09T18:56:29.645Z,17.97
2022-09-09T18:58:59.062Z,17.82
2022-09-09T19:01:26.487Z,17.76
2022-09-09T19:03:54.301Z,17.92
2022-09-09T19:06:24.424Z,17.85
2022-09-09T19:08:55.238Z,17.69
2022-09-09T19:11:24.197Z,17.71
2022-09-09T19:13:52.953Z,17.49
2022-09-09T19:16:20.676Z,17.34
2022-09-09T19:18:48.211Z,17.67
2022-09-09T19:21:18.265Z,17.84
2022-09-09T19:23:48.609Z,17.98
2022-09-09T19:26:16.980Z,17.97
2022-09-09T19:28:49.867Z,18.23
2022-09-09T19:31:18.541Z,18.43
2022-09-09T19:33:47.551Z,18.43
2022-09-09T19:36:18.187Z,18.49
2022-09-09T19:38:48.571Z,18.21
2022-09-09T19:41:18.209Z,17.81
2022-09-09T19:43:45.255Z,17.63
2022-09-09T19:46:14.293Z,17.48
2022-09-09T19:48:42.367Z,17.50
2022-09-09T19:51:21.548Z,17.26
2022-09-09T19:54:02.706Z,17.13
2022-09-09T19:56:30.721Z,17.00
2022-09-09T19:58:57.632Z,17.11
2022-09-09T20:01:30.040Z,17.32
2022-09-09T20:03:58.495Z,17.25
2022-09-09T20:06:28.150Z,17.40
2022-09-09T20:08:55.354Z,17.29
2022-09-09T20:11:23.331Z,17.26
2022-09-09T20:13:50.313Z,17.29
2022-09-09T20:16:20.046Z,17.04
2022-09-09T20:18:52.544Z,17.03
2022-09-09T20:21:26.129Z,16.71
2022-09-09T20:23:53.305Z,17.05
2022-09-09T20:26:22.344Z,16.74
2022-09-09T20:28:53.837Z,16.78
2022-09-09T20:31:27.273Z,16.61
2022-09-09T20:33:55.488Z,16.74
2022-09-09T20:36:27.737Z,16.82
2022-09-09T20:38:59.675Z,16.64
2022-09-09T20:41:29.124Z,16.59
2022-09-09T20:43:58.522Z,16.69
2022-09-09T20:46:27.515Z,16.28
2022-09-09T20:49:02.283Z,16.70
2022-09-09T20:51:32.936Z,16.85
2022-09-09T20:54:03.733Z,16.94
2022-09-09T20:56:34.280Z,17.06
2022-09-09T20:59:02.632Z,16.81
2022-09-09T21:01:29.636Z,16.43
2022-09-09T21:03:56.456Z,16.11
2022-09-09T21:06:22.985Z,16.23
2022-09-09T21:08:49.657Z,16.04
2022-09-09T21:11:17.453Z,15.98
2022-09-09T21:13:44.301Z,16.04
2022-09-09T21:16:15.472Z,16.02
2022-09-09T21:18:44.434Z,16.08
2022-09-09T21:21:11.334Z,16.15
2022-09-09T21:23:37.846Z,16.06
2022-09-09T21:26:04.945Z,16.05
2022-09-09T21:28:31.616Z,16.00
2022-09-09T21:30:58.273Z,15.95
2022-09-09T21:33:28.156Z,15.87
2022-09-09T21:36:05.794Z,16.14
2022-09-09T21:38:33.030Z,15.98
2022-09-09T21:41:13.491Z,16.38
2022-09-09T21:43:44.449Z,16.25
2022-09-09T21:46:14.283Z,16.25
2022-09-09T21:48:41.164Z,16.07
2022-09-09T21:51:10.657Z,16.25
2022-09-09T21:53:37.228Z,16.16
2022-09-09T21:56:10.636Z,16.05
2022-09-09T21:58:37.693Z,16.02
2022-09-09T22:01:13.141Z,15.89
2022-09-09T22:03:40.888Z,16.41
2022-09-09T22:06:09.079Z,16.40
2022-09-09T22:08:36.456Z,16.24
2022-09-09T22:11:15.174Z,16.13
2022-09-09T22:13:42.571Z,16.14
2022-09-09T22:16:12.318Z,16.09
2022-09-09T22:18:39.714Z,15.88
2022-09-09T22:21:15.198Z,15.95
2022-09-09T22:23:41.895Z,15.99
2022-09-09T22:26:09.087Z,15.90
2022-09-09T22:28:36.212Z,15.95
2022-09-09T22:31:02.855Z,15.91
2022-09-09T22:33:29.788Z,16.02
2022-09-09T22:35:56.727Z,16.09
2022-09-09T22:38:23.463Z,16.06
2022-09-09T22:40:50.011Z,16.30
2022-09-09T22:43:21.007Z,16.16
2022-09-09T22:45:48.486Z,16.20
2022-09-09T22:48:15.773Z,16.26
2022-09-09T22:50:42.836Z,16.27
2022-09-09T22:53:13.782Z,16.47
2022-09-09T22:55:40.901Z,16.61
2022-09-09T22:58:07.670Z,16.55
2022-09-09T23:00:34.185Z,16.57
2022-09-09T23:03:01.278Z,16.31
2022-09-09T23:05:27.818Z,16.19
2022-09-09T23:07:58.263Z,16.18
2022-09-09T23:10:25.516Z,16.23
2022-09-09T23:12:52.395Z,16.27
2022-09-09T23:15:19.752Z,16.34
2022-09-09T23:17:46.434Z,16.27
2022-09-09T23:20:13.025Z,16.17
2022-09-09T23:22:40.534Z,16.24
2022-09-09T23:25:07.831Z,16.28
2022-09-09T23:27:37.288Z,16.23
2022-09-09T23:30:06.963Z,16.40
2022-09-09T23:32:33.918Z,16.46
2022-09-09T23:35:00.704Z,16.74
2022-09-09T23:37:27.251Z,16.88
2022-09-09T23:39:53.793Z,16.73
2022-09-09T23:42:20.481Z,16.56
2022-09-09T23:44:47.509Z,16.19
2022-09-09T23:47:14.596Z,16.03
2022-09-09T23:49:41.115Z,16.08
2022-09-09T23:52:07.819Z,16.16
2022-09-09T23:54:34.863Z,16.37
2022-09-09T23:57:03.321Z,16.37
2022-09-09T23:59:34.803Z,16.19
